Time;durP1;ratioP1;P1;durP2;ratioP2;P2;SDS_P1;SDS_P2;PMS_P1;PMS_P2;Temp;Humidity;BMP_temperature;BMP_pressure;BME280_temperature;BME280_humidity;BME280_pressure;Samples;Min_cycle;Max_cycle;Signal;HPM_P1;HPM_P2
2023/01/02 00:02:11;;;;;;;0.20;0.20;;;;;;;10.91;100.00;96413.75;4959106;28;20049;-74
2023/01/02 00:04:57;;;;;;;0.20;0.20;;;;;;;10.97;100.00;96411.91;4965987;28;20053;-74
2023/01/02 00:07:43;;;;;;;0.10;0.10;;;;;;;10.96;100.00;96421.81;4963347;28;20070;-73
2023/01/02 00:10:29;;;;;;;0.10;0.10;;;;;;;10.97;100.00;96422.59;4965134;28;20046;-75
2023/01/02 00:13:14;;;;;;;0.10;0.10;;;;;;;10.99;100.00;96420.50;4964675;28;20112;-75
2023/01/02 00:16:00;;;;;;;0.10;0.10;;;;;;;10.95;100.00;96411.34;4967957;28;20589;-73
2023/01/02 00:18:46;;;;;;;0.10;0.10;;;;;;;10.91;100.00;96407.56;4964394;28;20054;-74
2023/01/02 00:21:32;;;;;;;0.10;0.10;;;;;;;10.89;100.00;96389.06;4964471;28;20267;-75
2023/01/02 00:24:18;;;;;;;0.10;0.10;;;;;;;10.87;100.00;96393.88;4966575;28;20169;-72
2023/01/02 00:27:04;;;;;;;0.10;0.10;;;;;;;10.79;100.00;96384.41;4965253;28;20048;-75
2023/01/02 00:29:50;;;;;;;0.10;0.10;;;;;;;10.83;100.00;96396.25;4966183;28;20887;-74
2023/01/02 00:32:36;;;;;;;0.10;0.10;;;;;;;10.87;100.00;96402.72;4962310;28;20522;-74
2023/01/02 00:35:22;;;;;;;0.17;0.17;;;;;;;10.85;100.00;96394.13;4965639;28;20050;-75
2023/01/02 00:38:07;;;;;;;0.10;0.10;;;;;;;10.83;100.00;96393.56;4963717;28;20352;-74
2023/01/02 00:40:53;;;;;;;0.10;0.10;;;;;;;10.83;100.00;96384.75;4965897;28;20050;-73
2023/01/02 00:43:39;;;;;;;0.20;0.20;;;;;;;10.86;100.00;96392.25;4964782;28;20439;-74
2023/01/02 00:46:25;;;;;;;0.20;0.20;;;;;;;10.87;100.00;96381.28;4965379;28;20042;-75
2023/01/02 00:49:11;;;;;;;0.20;0.20;;;;;;;10.88;100.00;96390.13;4964597;28;20046;-71
2023/01/02 00:51:56;;;;;;;0.10;0.10;;;;;;;10.89;100.00;96389.06;4966148;28;20050;-75
2023/01/02 00:54:42;;;;;;;0.20;0.20;;;;;;;10.86;100.00;96385.03;4968329;28;20545;-75
2023/01/02 00:57:28;;;;;;;0.38;0.20;;;;;;;10.84;100.00;96395.19;4965377;28;20042;-75
2023/01/02 01:00:14;;;;;;;0.10;0.10;;;;;;;10.89;100.00;96391.75;4965601;28;20617;-75
2023/01/02 01:03:01;;;;;;;0.20;0.20;;;;;;;10.83;100.00;96390.91;4945149;28;20421;-75
2023/01/02 01:05:47;;;;;;;0.10;0.10;;;;;;;10.85;100.00;96383.41;4946359;28;20161;-75
2023/01/02 01:08:34;;;;;;;0.10;0.10;;;;;;;10.85;100.00;96396.81;4944776;28;20364;-75
2023/01/02 01:11:20;;;;;;;0.20;0.20;;;;;;;10.83;100.00;96390.91;4945718;28;20153;-72
2023/01/02 01:14:06;;;;;;;0.20;0.20;;;;;;;10.82;100.00;96388.47;4946003;28;20191;-72
2023/01/02 01:16:52;;;;;;;0.20;0.20;;;;;;;10.83;100.00;96390.91;4944619;28;20538;-74
2023/01/02 01:19:38;;;;;;;0.17;0.17;;;;;;;10.83;100.00;96390.91;4943632;28;20503;-75
2023/01/02 01:22:24;;;;;;;0.20;0.20;;;;;;;10.78;100.00;96368.63;4945326;28;20042;-76
2023/01/02 01:25:10;;;;;;;0.10;0.10;;;;;;;10.73;100.00;96379.25;4944770;28;20882;-74
2023/01/02 01:27:56;;;;;;;0.10;0.10;;;;;;;10.65;100.00;96361.78;4945225;28;20122;-71
2023/01/02 01:30:41;;;;;;;0.10;0.10;;;;;;;10.71;100.00;96371.47;4950899;28;20050;-71
2023/01/02 01:33:29;;;;;;;0.13;0.13;;;;;;;10.66;100.00;96381.31;4962255;28;21474;-75
2023/01/02 01:36:18;;;;;;;0.15;0.15;;;;;;;10.64;100.00;96375.41;4962093;28;20125;-74
2023/01/02 01:39:04;;;;;;;0.10;0.10;;;;;;;10.53;100.00;96374.50;4963393;28;20478;-75
2023/01/02 01:41:52;;;;;;;0.10;0.10;;;;;;;10.57;100.00;96378.28;4965617;28;20050;-74
2023/01/02 01:44:47;;;;;;;0.10;0.10;;;;;;;10.56;100.00;96369.44;4966663;28;20154;-74
2023/01/02 01:47:58;;;;;;;0.10;0.10;;;;;;;10.50;100.00;96380.34;4963878;28;20402;-74
2023/01/02 01:50:44;;;;;;;0.20;0.20;;;;;;;10.47;100.00;96367.47;4966320;28;20042;-71
2023/01/02 01:53:30;;;;;;;0.10;0.10;;;;;;;10.43;100.00;96375.19;4964334;28;20534;-74
2023/01/02 01:56:16;;;;;;;0.10;0.10;;;;;;;10.37;100.00;96391.44;4965625;28;20229;-74
2023/01/02 01:59:03;;;;;;;0.13;0.13;;;;;;;10.36;100.00;96384.47;4964152;28;20719;-74
2023/01/02 02:01:50;;;;;;;0.10;0.10;;;;;;;10.29;100.00;96390.78;4950693;28;20296;-74
2023/01/02 02:04:36;;;;;;;0.20;0.20;;;;;;;10.27;100.00;96387.56;4946305;28;20066;-74
2023/01/02 02:07:22;;;;;;;0.15;0.15;;;;;;;10.27;100.00;96395.59;4942639;28;20293;-73
2023/01/02 02:10:09;;;;;;;0.10;0.10;;;;;;;10.30;100.00;96394.28;4944609;28;20058;-75
2023/01/02 02:12:55;;;;;;;0.20;0.20;;;;;;;10.31;100.00;96395.91;4943834;28;20101;-75
2023/01/02 02:15:52;;;;;;;0.10;0.10;;;;;;;10.23;100.00;96389.09;4942718;28;20039;-76
2023/01/02 02:19:03;;;;;;;0.10;0.10;;;;;;;10.16;100.00;96390.31;4944560;28;20043;-73
2023/01/02 02:21:54;;;;;;;0.20;0.20;;;;;;;10.09;100.00;96395.84;4943495;28;20042;-72
2023/01/02 02:25:36;;;;;;;0.10;0.10;;;;;;;10.14;100.00;96393.22;4945055;28;20259;-74
2023/01/02 02:28:56;;;;;;;0.10;0.10;;;;;;;10.15;100.00;96384.16;4939278;28;20070;-73
2023/01/02 02:32:24;;;;;;;0.10;0.10;;;;;;;10.11;100.00;96375.00;4944802;28;20150;-72
2023/01/02 02:35:32;;;;;;;0.17;0.17;;;;;;;10.13;100.00;96372.09;4850798;29;20753;-76
2023/01/02 02:38:47;;;;;;;0.20;0.20;;;;;;;10.10;100.00;96370.72;4939827;28;20039;-75
2023/01/02 02:41:55;;;;;;;0.15;0.15;;;;;;;10.05;100.00;96365.31;4943913;28;20089;-75
2023/01/02 02:44:53;;;;;;;0.10;0.10;;;;;;;10.10;100.00;96370.72;4945324;28;20038;-72
2023/01/02 02:47:50;;;;;;;0.10;0.10;;;;;;;10.18;100.00;96364.13;4944134;28;20055;-75
2023/01/02 02:50:43;;;;;;;0.10;0.10;;;;;;;10.19;100.00;96358.53;4944383;28;20046;-73
2023/01/02 02:53:35;;;;;;;0.10;0.10;;;;;;;10.24;100.00;96358.63;4941644;28;20324;-72
2023/01/02 02:56:24;;;;;;;0.10;0.10;;;;;;;10.26;100.00;96361.03;4944255;28;20042;-73
2023/01/02 02:59:11;;;;;;;0.20;0.20;;;;;;;10.28;100.00;96353.59;4942915;28;20047;-75
2023/01/02 03:01:57;;;;;;;0.20;0.20;;;;;;;10.35;100.00;96356.06;4957715;28;20377;-73
2023/01/02 03:04:53;;;;;;;0.13;0.13;;;;;;;10.41;100.00;96341.72;4964867;28;20361;-72
2023/01/02 03:07:45;;;;;;;0.13;0.13;;;;;;;10.43;100.00;96339.59;4961631;28;20046;-75
2023/01/02 03:10:48;;;;;;;0.10;0.10;;;;;;;10.44;100.00;96342.03;4962779;28;20794;-75
2023/01/02 03:14:06;;;;;;;0.10;0.10;;;;;;;10.46;100.00;96341.78;4961763;28;20575;-73
2023/01/02 03:17:03;;;;;;;0.20;0.20;;;;;;;10.46;100.00;96339.09;4963974;28;20042;-74
2023/01/02 03:19:55;;;;;;;0.10;0.10;;;;;;;10.48;100.00;96340.47;4963289;28;20207;-73
2023/01/02 03:22:47;;;;;;;0.20;0.20;;;;;;;10.47;100.00;96343.38;4961757;28;20041;-74
2023/01/02 03:25:35;;;;;;;0.10;0.10;;;;;;;10.48;100.00;96351.16;4962142;28;20289;-71
2023/01/02 03:28:25;;;;;;;0.10;0.10;;;;;;;10.49;100.00;96342.06;4961083;28;20042;-72
2023/01/02 03:31:17;;;;;;;0.15;0.15;;;;;;;10.50;100.00;96353.56;4953747;28;20236;-76
2023/01/02 03:34:11;;;;;;;0.10;0.10;;;;;;;10.57;100.00;96359.53;4941412;28;20042;-75
2023/01/02 03:37:03;;;;;;;0.10;0.10;;;;;;;10.56;100.00;96360.59;4941994;28;20100;-73
2023/01/02 03:39:53;;;;;;;0.10;0.10;;;;;;;10.57;100.00;96362.22;4941423;28;20088;-74
2023/01/02 03:43:07;;;;;;;0.10;0.10;;;;;;;10.59;100.00;96366.28;4943613;28;20038;-73
2023/01/02 03:46:17;;;;;;;0.10;0.10;;;;;;;10.62;100.00;96362.28;4944654;28;20543;-72
2023/01/02 03:49:07;;;;;;;0.10;0.10;;;;;;;10.56;100.00;96355.25;4940478;28;20097;-74
2023/01/02 03:51:53;;;;;;;0.17;0.17;;;;;;;10.56;100.00;96357.94;4942404;28;20304;-73
2023/01/02 03:54:39;;;;;;;0.20;0.20;;;;;;;10.52;100.00;96351.47;4943776;28;20587;-75
2023/01/02 03:57:50;;;;;;;0.10;0.10;;;;;;;10.43;100.00;96358.34;4942643;28;20762;-75
2023/01/02 04:00:41;;;;;;;;;;;;;;;10.41;100.00;96363.09;4943253;28;20066;-74
2023/01/02 04:03:37;;;;;;;0.10;0.10;;;;;;;10.30;100.00;96363.00;4942302;28;20691;-74
2023/01/02 04:06:33;;;;;;;0.20;0.20;;;;;;;10.28;100.00;96375.81;4942694;28;20045;-73
2023/01/02 04:09:25;;;;;;;0.17;0.17;;;;;;;10.31;100.00;96369.16;4944062;28;20046;-74
2023/01/02 04:12:15;;;;;;;0.13;0.13;;;;;;;10.29;100.00;96382.78;4956884;28;20264;-75
2023/01/02 04:15:06;;;;;;;0.10;0.10;;;;;;;10.37;100.00;96375.38;4946318;28;20364;-75
2023/01/02 04:17:59;;;;;;;0.20;0.20;;;;;;;10.40;100.00;96381.03;4945855;28;20051;-73
2023/01/02 04:20:48;;;;;;;0.10;0.10;;;;;;;10.40;100.00;96378.34;4946794;28;20733;-72
2023/01/02 04:23:44;;;;;;;0.10;0.10;;;;;;;10.36;100.00;96373.75;4944333;28;20046;-75
2023/01/02 04:26:40;;;;;;;0.10;0.10;;;;;;;10.32;100.00;96374.25;4945516;28;20268;-72
2023/01/02 04:29:27;;;;;;;0.10;0.10;;;;;;;10.31;100.00;96387.88;4944732;28;20047;-75
2023/01/02 04:32:21;;;;;;;0.10;0.10;;;;;;;10.31;100.00;96383.31;4944026;28;20059;-75
2023/01/02 04:35:14;;;;;;;0.10;0.10;;;;;;;10.27;100.00;96390.25;4945799;28;20042;-75
2023/01/02 04:38:08;;;;;;;0.10;0.10;;;;;;;10.30;100.00;96387.06;4943639;28;20464;-73
2023/01/02 04:40:54;;;;;;;0.10;0.10;;;;;;;10.36;100.00;96387.94;4946903;28;20226;-72
2023/01/02 04:43:40;;;;;;;0.10;0.10;;;;;;;10.37;100.00;96372.69;4947195;28;20045;-72
2023/01/02 04:46:27;;;;;;;0.10;0.10;;;;;;;10.35;100.00;96382.81;4945510;28;20086;-74
2023/01/02 04:49:13;;;;;;;0.10;0.10;;;;;;;10.33;100.00;96385.75;4943799;28;20105;-75
2023/01/02 04:51:59;;;;;;;0.17;0.17;;;;;;;10.34;100.00;96376.66;4944042;28;20122;-74
2023/01/02 04:54:45;;;;;;;0.20;0.20;;;;;;;10.43;100.00;96387.75;4946528;28;20604;-71
2023/01/02 04:57:31;;;;;;;0.10;0.10;;;;;;;10.45;100.00;96397.16;4944064;28;20757;-75
2023/01/02 05:00:17;;;;;;;0.10;0.10;;;;;;;10.45;100.00;96396.34;4944616;28;20034;-74
2023/01/02 05:03:03;;;;;;;0.10;0.10;;;;;;;10.43;100.00;96390.44;4947100;28;20209;-74
2023/01/02 05:05:49;;;;;;;0.10;0.10;;;;;;;10.43;100.00;96395.78;4947231;28;20093;-74
2023/01/02 05:08:36;;;;;;;0.10;0.10;;;;;;;10.43;100.00;96395.78;4944827;28;21197;-73
2023/01/02 05:11:22;;;;;;;0.20;0.20;;;;;;;10.40;100.00;96404.28;4947175;28;20035;-72
2023/01/02 05:14:08;;;;;;;0.10;0.10;;;;;;;10.39;100.00;96394.66;4945963;28;20034;-75
2023/01/02 05:16:54;;;;;;;0.10;0.10;;;;;;;10.35;100.00;96405.06;4946786;28;20571;-73
2023/01/02 05:19:40;;;;;;;0.10;0.10;;;;;;;10.27;100.00;96408.97;4947070;28;20050;-75
2023/01/02 05:25:33;;;;;;;0.20;0.20;;;;;;;10.21;100.00;96403.75;4945764;28;20093;-72
2023/01/02 05:28:19;;;;;;;0.20;0.20;;;;;;;10.15;100.00;96402.88;4943444;28;20043;-71
2023/01/02 05:31:05;;;;;;;0.17;0.17;;;;;;;10.08;100.00;96398.75;4946237;28;20149;-75
2023/01/02 05:33:51;;;;;;;0.15;0.15;;;;;;;10.11;100.00;96401.72;4947446;28;20079;-75
2023/01/02 05:36:37;;;;;;;0.10;0.10;;;;;;;10.17;100.00;96392.72;4945263;28;20062;-74
2023/01/02 05:39:23;;;;;;;0.20;0.20;;;;;;;10.19;100.00;96400.50;4943782;28;20924;-74
2023/01/02 05:42:09;;;;;;;0.10;0.10;;;;;;;10.23;100.00;96402.47;4947494;28;20050;-75
2023/01/02 05:44:55;;;;;;;0.20;0.20;;;;;;;10.26;100.00;96399.28;4945534;28;20042;-74
2023/01/02 05:47:41;;;;;;;0.10;0.10;;;;;;;10.24;100.00;96403.28;4947287;28;20485;-75
2023/01/02 05:50:29;;;;;;;0.15;0.15;;;;;;;10.12;100.00;96416.75;4957988;28;20069;-75
2023/01/02 05:53:16;;;;;;;0.10;0.10;;;;;;;10.10;100.00;96410.00;4943839;28;20125;-75
2023/01/02 05:56:08;;;;;;;0.10;0.10;;;;;;;10.10;100.00;96408.13;4947718;28;20034;-76
2023/01/02 05:58:57;;;;;;;0.10;0.10;;;;;;;10.14;100.00;96398.59;4945927;28;20035;-75
2023/01/02 06:01:43;;;;;;;0.10;0.10;;;;;;;10.20;100.00;96402.16;4957625;28;20318;-73
2023/01/02 06:04:29;;;;;;;0.10;0.10;;;;;;;10.21;100.00;96409.09;4963010;28;20048;-76
2023/01/02 06:07:15;;;;;;;0.10;0.10;;;;;;;10.28;100.00;96410.56;4962833;28;20030;-77
2023/01/02 06:10:01;;;;;;;0.10;0.10;;;;;;;10.32;100.00;96421.56;4965989;28;20037;-76
2023/01/02 06:12:48;;;;;;;0.10;0.10;;;;;;;10.30;100.00;96427.19;4964396;28;20053;-74
2023/01/02 06:15:34;;;;;;;0.10;0.10;;;;;;;10.40;100.00;96420.34;4964553;28;20496;-74
2023/01/02 06:18:20;;;;;;;0.17;0.17;;;;;;;10.42;100.00;96428.91;4962622;28;20337;-75
2023/01/02 06:21:11;;;;;;;0.20;0.20;;;;;;;10.50;100.00;96441.88;4965307;28;20046;-75
2023/01/02 06:23:59;;;;;;;0.20;0.20;;;;;;;10.48;100.00;96436.75;4966176;28;20042;-74
2023/01/02 06:26:45;;;;;;;0.10;0.10;;;;;;;10.47;100.00;96437.03;4965706;28;20741;-74
2023/01/02 06:29:31;;;;;;;0.10;0.10;;;;;;;10.48;100.00;96441.31;4964907;28;20054;-75
2023/01/02 06:32:17;;;;;;;0.10;0.10;;;;;;;10.54;100.00;96429.63;4947987;28;20046;-76
2023/01/02 06:35:04;;;;;;;0.20;0.20;;;;;;;10.54;100.00;96424.28;4947096;28;20039;-76
2023/01/02 06:37:50;;;;;;;0.10;0.10;;;;;;;10.58;100.00;96446.78;4943895;28;20497;-76
2023/01/02 06:40:36;;;;;;;0.10;0.10;;;;;;;10.57;100.00;96442.50;4946287;28;20700;-72
2023/01/02 06:43:23;;;;;;;0.20;0.20;;;;;;;10.57;100.00;96453.19;4945821;28;20149;-76
2023/01/02 06:46:10;;;;;;;0.10;0.10;;;;;;;10.62;100.00;96455.13;4944724;28;20141;-75
2023/01/02 06:48:55;;;;;;;0.13;0.13;;;;;;;10.62;100.00;96452.47;4944620;28;20046;-74
2023/01/02 06:51:41;;;;;;;0.17;0.17;;;;;;;10.58;100.00;96446.78;4943998;28;20046;-73
2023/01/02 06:54:27;;;;;;;0.20;0.20;;;;;;;10.56;100.00;96443.56;4941706;28;20050;-76
2023/01/02 06:57:13;;;;;;;0.10;0.10;;;;;;;10.62;100.00;96445.25;4960205;28;20039;-75
2023/01/02 07:00:00;;;;;;;0.10;0.10;;;;;;;10.59;100.00;96435.84;4946438;28;20048;-73
2023/01/02 07:02:46;;;;;;;0.10;0.10;;;;;;;10.46;100.00;96408.66;4963944;28;21554;-73
2023/01/02 07:05:32;;;;;;;0.10;0.10;;;;;;;10.43;100.00;96409.97;4974813;28;20045;-73
2023/01/02 07:08:18;;;;;;;0.17;0.17;;;;;;;10.39;100.00;96400.00;4963410;28;20586;-75
2023/01/02 07:11:12;;;;;;;0.30;0.20;;;;;;;10.37;100.00;96404.78;4964186;28;20728;-76
2023/01/02 07:13:58;;;;;;;0.17;0.17;;;;;;;10.39;100.00;96414.19;4965788;28;20664;-75
2023/01/02 07:16:43;;;;;;;0.13;0.13;;;;;;;10.34;100.00;96414.09;4963360;28;20672;-75
2023/01/02 07:19:29;;;;;;;0.20;0.20;;;;;;;10.32;100.00;96414.34;4964161;28;20042;-76
2023/01/02 07:22:15;;;;;;;0.10;0.10;;;;;;;10.33;100.00;96426.66;4962890;28;20539;-74
2023/01/02 07:25:01;;;;;;;0.17;0.17;;;;;;;10.39;100.00;96426.75;4965745;28;20038;-74
2023/01/02 07:27:47;;;;;;;0.10;0.10;;;;;;;10.42;100.00;96421.69;4962978;28;20635;-72
2023/01/02 07:30:33;;;;;;;0.20;0.20;;;;;;;10.43;100.00;96433.25;4963170;28;20050;-72
2023/01/02 07:33:19;;;;;;;0.13;0.13;;;;;;;10.50;100.00;96433.84;4964954;28;20042;-74
2023/01/02 07:36:09;;;;;;;0.10;0.10;;;;;;;10.49;100.00;96442.91;4951847;28;20137;-75
2023/01/02 07:38:56;;;;;;;0.10;0.10;;;;;;;10.50;100.00;96448.03;4963905;28;20557;-76
2023/01/02 07:41:42;;;;;;;0.20;0.20;;;;;;;10.50;100.00;96453.38;4965745;28;20042;-75
2023/01/02 07:44:33;;;;;;;0.20;0.20;;;;;;;10.49;100.00;96462.47;4953715;28;20044;-75
2023/01/02 07:47:19;;;;;;;0.10;0.10;;;;;;;10.47;100.00;96453.88;4967345;28;20341;-75
2023/01/02 07:50:05;;;;;;;0.10;0.10;;;;;;;10.49;100.00;96465.13;4968919;28;20108;-74
2023/01/02 07:52:51;;;;;;;0.10;0.10;;;;;;;10.55;100.00;96471.38;4967224;28;20080;-73
2023/01/02 07:55:36;;;;;;;0.10;0.10;;;;;;;10.48;100.00;96455.50;4966885;28;20051;-73
2023/01/02 07:58:23;;;;;;;0.10;0.10;;;;;;;10.52;100.00;96453.97;4968142;28;20123;-75
2023/01/02 08:01:11;;;;;;;0.10;0.10;;;;;;;10.46;100.00;96459.47;4968964;28;20298;-74
2023/01/02 08:03:58;;;;;;;0.20;0.20;;;;;;;10.50;100.00;96460.59;4968556;28;20042;-73
2023/01/02 08:06:44;;;;;;;0.20;0.20;;;;;;;10.53;100.00;96470.81;4968837;28;20035;-74
2023/01/02 08:09:30;;;;;;;0.20;0.17;;;;;;;10.54;100.00;96475.09;4967417;28;20280;-72
2023/01/02 08:12:16;;;;;;;0.10;0.10;;;;;;;10.52;100.00;96471.88;4967115;28;20510;-71
2023/01/02 08:15:02;;;;;;;0.25;0.20;;;;;;;10.48;100.00;96468.88;4968738;28;20062;-75
2023/01/02 08:17:48;;;;;;;0.10;0.10;;;;;;;10.45;100.00;96481.94;4967161;28;21911;-75
2023/01/02 08:20:34;;;;;;;0.10;0.10;;;;;;;10.47;100.00;96485.19;4969527;28;20808;-71
2023/01/02 08:23:20;;;;;;;0.10;0.10;;;;;;;10.47;100.00;96477.97;4968038;28;20038;-74
2023/01/02 08:26:08;;;;;;;0.10;0.10;;;;;;;10.48;100.00;96471.53;4967767;28;20046;-75
2023/01/02 08:28:54;;;;;;;0.20;0.20;;;;;;;10.56;100.00;96481.81;4967385;28;20038;-74
2023/01/02 08:31:40;;;;;;;0.10;0.10;;;;;;;10.54;100.00;96491.16;4966695;28;20057;-74
2023/01/02 08:34:26;;;;;;;0.10;0.10;;;;;;;10.60;100.00;96503.56;4967389;28;20133;-74
2023/01/02 08:37:12;;;;;;;0.20;0.20;;;;;;;10.66;100.00;96507.94;4966622;28;20046;-75
2023/01/02 08:39:58;;;;;;;0.10;0.10;;;;;;;10.61;100.00;96502.50;4967756;28;20042;-74
2023/01/02 08:42:44;;;;;;;0.10;0.10;;;;;;;10.66;100.00;96509.75;4968265;28;20141;-74
2023/01/02 08:45:30;;;;;;;0.20;0.20;;;;;;;10.61;100.00;96515.88;4968429;28;20481;-72
2023/01/02 08:48:16;;;;;;;0.15;0.15;;;;;;;10.65;100.00;96530.38;4966135;28;20104;-76
2023/01/02 08:51:03;;;;;;;0.20;0.20;;;;;;;10.65;100.00;96522.34;4966641;28;20050;-74
2023/01/02 08:53:50;;;;;;;0.20;0.20;;;;;;;10.58;100.00;96522.53;4967461;28;20046;-76
2023/01/02 08:56:37;;;;;;;0.17;0.13;;;;;;;10.54;100.00;96533.97;4967565;28;20053;-74
2023/01/02 08:59:24;;;;;;;0.15;0.15;;;;;;;10.48;100.00;96532.28;4966627;28;20340;-74
2023/01/02 09:02:14;;;;;;;0.10;0.10;;;;;;;10.44;100.00;96545.34;4968172;28;20538;-76
2023/01/02 09:05:00;;;;;;;0.20;0.20;;;;;;;10.42;100.00;96543.94;4967138;28;20060;-73
2023/01/02 09:07:45;;;;;;;0.17;0.17;;;;;;;10.39;100.00;96545.25;4966425;28;20039;-75
2023/01/02 09:10:31;;;;;;;0.20;0.20;;;;;;;10.42;100.00;96549.28;4980646;28;20607;-74
2023/01/02 09:13:17;;;;;;;0.20;0.20;;;;;;;10.35;100.00;96559.34;4933253;28;20970;-76
2023/01/02 09:16:03;;;;;;;0.10;0.10;;;;;;;10.40;100.00;96552.22;4966932;28;20397;-75
2023/01/02 09:18:50;;;;;;;0.20;0.20;;;;;;;10.25;100.00;96544.78;4965015;28;20546;-73
2023/01/02 09:21:36;;;;;;;0.13;0.13;;;;;;;10.25;100.00;96558.16;4965510;28;20042;-73
2023/01/02 09:24:22;;;;;;;0.10;0.10;;;;;;;10.28;100.00;96552.31;4967673;28;20051;-76
2023/01/02 09:27:07;;;;;;;0.10;0.10;;;;;;;10.31;100.00;96559.03;4967860;28;20042;-74
2023/01/02 09:29:55;;;;;;;0.10;0.10;;;;;;;10.24;100.00;96564.56;4965015;28;20074;-75
2023/01/02 09:32:41;;;;;;;0.20;0.20;;;;;;;10.14;100.00;96566.22;4965071;28;20622;-74
2023/01/02 09:35:26;;;;;;;0.20;0.20;;;;;;;10.19;100.00;96577.00;4965898;28;20050;-76
2023/01/02 09:38:13;;;;;;;0.10;0.10;;;;;;;10.15;100.00;96581.22;4966660;28;20042;-75
2023/01/02 09:41:01;;;;;;;0.10;0.10;;;;;;;10.18;100.00;96576.19;4964870;28;20542;-75
2023/01/02 09:43:54;;;;;;;0.10;0.10;;;;;;;10.02;100.00;96572.44;4966639;28;20518;-75
2023/01/02 09:46:48;;;;;;;0.10;0.10;;;;;;;10.07;100.00;96573.59;4967186;28;20454;-73
2023/01/02 09:49:50;;;;;;;0.20;0.20;;;;;;;10.09;100.00;96585.66;4964009;28;20042;-76
2023/01/02 09:52:40;;;;;;;0.10;0.10;;;;;;;10.07;100.00;96595.78;4965559;28;20058;-76
2023/01/02 09:55:43;;;;;;;0.10;0.10;;;;;;;10.12;100.00;96592.41;4966407;28;20048;-75
2023/01/02 09:58:42;;;;;;;0.10;0.10;;;;;;;10.15;100.00;96592.72;4966921;28;20786;-76
2023/01/02 10:01:49;;;;;;;0.20;0.20;;;;;;;10.12;100.00;96587.88;4956881;28;20733;-76
2023/01/02 10:04:35;;;;;;;0.10;0.10;;;;;;;10.10;100.00;96579.25;4945642;28;20109;-75
2023/01/02 10:07:32;;;;;;;0.20;0.20;;;;;;;10.12;100.00;96571.03;4944951;28;20047;-77
2023/01/02 10:10:36;;;;;;;0.10;0.10;;;;;;;10.07;100.00;96557.56;4945554;28;20162;-74
2023/01/02 10:13:32;;;;;;;0.20;0.20;;;;;;;10.14;100.00;96574.25;4948576;28;20271;-76
2023/01/02 10:16:25;;;;;;;0.10;0.10;;;;;;;9.91;100.00;96581.34;4946033;28;20523;-77
2023/01/02 10:19:17;;;;;;;0.10;0.10;;;;;;;10.03;100.00;96590.09;4946095;28;20043;-76
2023/01/02 10:22:06;;;;;;;0.10;0.10;;;;;;;10.01;100.00;96596.75;4943453;28;20046;-74
2023/01/02 10:25:21;;;;;;;0.20;0.20;;;;;;;9.97;100.00;96593.75;4959001;28;20348;-74
2023/01/02 10:28:39;;;;;;;0.15;0.15;;;;;;;9.99;100.00;96590.84;4945999;28;20499;-74
2023/01/02 10:31:51;;;;;;;0.15;0.15;;;;;;;9.86;100.00;96596.47;4958028;28;20109;-76
2023/01/02 10:35:05;;;;;;;0.10;0.10;;;;;;;9.91;100.00;96597.41;4967262;28;20048;-76
2023/01/02 10:37:55;;;;;;;0.10;0.10;;;;;;;9.97;100.00;96600.97;4966029;28;20045;-75
2023/01/02 10:40:44;;;;;;;0.10;0.10;;;;;;;9.91;100.00;96601.94;4967129;28;20051;-77
2023/01/02 10:43:33;;;;;;;0.15;0.15;;;;;;;9.47;100.00;96612.31;4966467;28;20043;-76
2023/01/02 10:46:19;;;;;;;0.10;0.10;;;;;;;9.49;100.00;96587.03;4963939;28;20439;-77
2023/01/02 10:49:07;;;;;;;0.17;0.13;;;;;;;9.45;100.00;96611.75;4964768;28;20046;-78
2023/01/02 10:52:04;;;;;;;0.10;0.10;;;;;;;9.45;100.00;96601.06;4965049;28;20561;-78
2023/01/02 10:54:54;;;;;;;0.10;0.10;;;;;;;9.49;100.00;96599.53;4975561;28;20570;-76
2023/01/02 10:57:43;;;;;;;0.10;0.10;;;;;;;9.49;100.00;96607.56;4975275;28;20546;-77
2023/01/02 11:00:30;;;;;;;0.10;0.10;;;;;;;9.31;100.00;96602.41;4963516;28;20460;-76
2023/01/02 11:03:21;;;;;;;0.10;0.10;;;;;;;9.23;100.00;96613.44;4956978;28;20153;-76
2023/01/02 11:06:27;;;;;;;0.10;0.10;;;;;;;9.16;100.00;96609.03;4945738;28;20065;-78
2023/01/02 11:09:28;;;;;;;0.20;0.20;;;;;;;9.01;100.00;96598.03;4940810;28;20126;-78
2023/01/02 11:12:14;;;;;;;0.10;0.10;;;;;;;9.03;100.00;96606.66;4946933;28;20115;-76
2023/01/02 11:15:11;;;;;;;0.10;0.10;;;;;;;9.03;100.00;96617.31;4946170;28;20043;-75
2023/01/02 11:17:58;;;;;;;0.20;0.20;;;;;;;9.14;100.00;96619.16;4951449;28;20074;-75
2023/01/02 11:20:52;;;;;;;0.10;0.10;;;;;;;9.17;100.00;96610.66;4951132;28;20050;-76
2023/01/02 11:23:43;;;;;;;0.20;0.20;;;;;;;8.92;100.00;96610.94;4950917;28;20796;-77
2023/01/02 11:26:31;;;;;;;0.15;0.15;;;;;;;8.98;100.00;96608.38;4950938;28;20176;-75
2023/01/02 11:29:26;;;;;;;0.10;0.10;;;;;;;9.12;100.00;96618.59;4948985;28;20049;-76
2023/01/02 11:32:26;;;;;;;0.10;0.10;;;;;;;9.19;100.00;96621.94;4950044;28;20084;-78
2023/01/02 11:35:49;;;;;;;0.10;0.10;;;;;;;9.10;100.00;96619.84;4948122;28;20125;-78
2023/01/02 11:38:47;;;;;;;0.10;0.10;;;;;;;9.17;100.00;96620.53;4887919;29;20036;-77
2023/01/02 11:45:09;;;;;;;0.10;0.10;;;;;;;9.25;100.00;96635.38;4946767;28;20050;-76
2023/01/02 11:47:59;;;;;;;0.10;0.10;;;;;;;9.24;100.00;96618.53;4947908;28;20046;-78
2023/01/02 11:50:47;;;;;;;0.20;0.20;;;;;;;9.12;100.00;96628.44;4949400;28;20047;-78
2023/01/02 11:53:39;;;;;;;0.10;0.10;;;;;;;9.16;100.00;96626.91;4950522;28;20376;-78
2023/01/02 11:56:34;;;;;;;0.17;0.17;;;;;;;9.16;100.00;96633.06;4258470;28;10000597;-78
2023/01/02 11:59:27;;;;;;;0.20;0.20;;;;;;;9.15;100.00;96634.13;4948792;28;20038;-75
2023/01/02 12:02:27;;;;;;;0.10;0.10;;;;;;;9.15;100.00;96612.75;4964871;28;20141;-77
2023/01/02 12:06:05;;;;;;;0.10;0.10;;;;;;;9.39;100.00;96612.69;4967396;28;20447;-77
2023/01/02 12:08:54;;;;;;;0.13;0.13;;;;;;;9.34;100.00;96607.25;4966105;28;20574;-75
2023/01/02 12:11:59;;;;;;;0.17;0.17;;;;;;;9.43;100.00;96614.69;4969474;28;20351;-75
2023/01/02 12:14:50;;;;;;;0.10;0.10;;;;;;;9.37;100.00;96606.78;4967879;28;20088;-74
2023/01/02 12:17:45;;;;;;;0.10;0.10;;;;;;;9.29;100.00;96612.50;4964557;28;20133;-75
2023/01/02 12:21:11;;;;;;;0.10;0.10;;;;;;;9.24;100.00;96629.22;4969309;28;20106;-76
2023/01/02 12:24:27;;;;;;;0.10;0.10;;;;;;;9.15;100.00;96628.78;4968072;28;20034;-77
2023/01/02 12:27:42;;;;;;;0.20;0.20;;;;;;;9.14;100.00;96631.69;4967293;28;20428;-78
2023/01/02 12:30:33;;;;;;;0.10;0.10;;;;;;;9.17;100.00;96636.53;4965898;28;20104;-74
2023/01/02 12:33:36;;;;;;;0.15;0.15;;;;;;;9.17;100.00;96648.03;4966801;28;20038;-76
2023/01/02 12:36:41;;;;;;;0.10;0.10;;;;;;;9.18;100.00;96652.34;4969581;28;20058;-75
2023/01/02 12:40:01;;;;;;;0.13;0.13;;;;;;;9.11;100.00;96648.19;4967329;28;20650;-77
2023/01/02 12:42:59;;;;;;;0.10;0.10;;;;;;;8.97;100.00;96654.81;4968994;28;20075;-77
2023/01/02 12:46:00;;;;;;;0.10;0.10;;;;;;;9.04;100.00;96664.31;4967974;28;20074;-75
2023/01/02 12:48:55;;;;;;;0.10;0.10;;;;;;;9.05;100.00;96651.78;4980137;28;20377;-76
2023/01/02 12:51:47;;;;;;;0.10;0.10;;;;;;;9.04;100.00;96666.19;4969915;28;20650;-77
2023/01/02 12:54:47;;;;;;;0.20;0.20;;;;;;;9.08;100.00;96676.13;4622084;28;9999749;-76
2023/01/02 12:57:36;;;;;;;0.17;0.17;;;;;;;9.06;100.00;96664.91;4965931;28;20189;-76
2023/01/02 13:00:58;;;;;;;0.10;0.10;;;;;;;9.13;100.00;96673.59;4967072;28;20593;-75
2023/01/02 13:04:02;;;;;;;;;;;;;;;9.19;100.00;96677.19;4968593;28;20062;-77
2023/01/02 13:06:57;;;;;;;0.10;0.10;;;;;;;9.24;100.00;96681.81;4967005;28;19925;-76
2023/01/02 13:09:44;;;;;;;0.13;0.13;;;;;;;9.26;100.00;96679.72;4965450;28;20280;-77
2023/01/02 13:12:33;;;;;;;0.17;0.17;;;;;;;9.28;100.00;96677.66;4967918;28;20061;-77
2023/01/02 13:15:36;;;;;;;0.10;0.10;;;;;;;9.29;100.00;96680.06;4969006;28;20044;-77
2023/01/02 13:18:30;;;;;;;0.10;0.10;;;;;;;9.25;100.00;96686.09;4968984;28;20473;-75
2023/01/02 13:21:29;;;;;;;0.20;0.10;;;;;;;9.11;100.00;96672.22;4966973;28;20268;-77
2023/01/02 13:24:20;;;;;;;0.10;0.10;;;;;;;9.06;100.00;96669.44;4967310;28;20124;-77
2023/01/02 13:27:08;;;;;;;;;;;;;;;9.02;100.00;96668.25;4967066;28;20042;-77